SWR5YV LSZH-LROP
Flight info
| Callsign | SWR5YV |
|---|---|
| Flight time | 1h 52m |
| Altitude | 29000 |
| Route | DEGES Z2 UMVEG/N0446F350 DCT DIMLO DCT INVED DCT LAMIT DCT TOSVI |
| Aircraft | A321/M-SDE3FGHIRWY/LB1 |
Departure
| Time | 2026-05-04 09:05 |
|---|---|
| Airport | Zürich Airport (LSZH) |
Arrival
| Time | 2026-05-04 10:58 |
|---|---|
| Airport | Bucharest Henri Coandă International Airport (LROP) |
| Time | Latitude | Longitude | Altitude | Speed | Heading |
|---|---|---|---|---|---|
| 2026-05-04 08:33 | 47.45169 | 8.55804 | 1397 ft | 0 kts | 186° |
| 2026-05-04 08:55 | 47.45170 | 8.55804 | 1397 ft | 1 kts | 186° |
| 2026-05-04 08:55 | 47.45194 | 8.55808 | 1397 ft | 4 kts | 189° |
| 2026-05-04 08:55 | 47.45221 | 8.55816 | 1406 ft | 4 kts | 196° |
| 2026-05-04 08:55 | 47.45245 | 8.55830 | 1406 ft | 4 kts | 220° |
| 2026-05-04 08:57 | 47.45256 | 8.55855 | 1397 ft | 0 kts | 276° |
| 2026-05-04 09:01 | 47.45779 | 8.55105 | 1405 ft | 19 kts | 336° |
| 2026-05-04 09:01 | 47.45914 | 8.55015 | 1397 ft | 21 kts | 335° |
| 2026-05-04 09:01 | 47.46042 | 8.54924 | 1402 ft | 19 kts | 335° |
| 2026-05-04 09:01 | 47.46161 | 8.54842 | 1398 ft | 19 kts | 336° |
| 2026-05-04 09:02 | 47.46271 | 8.54764 | 1402 ft | 17 kts | 335° |
| 2026-05-04 09:02 | 47.46420 | 8.54665 | 1399 ft | 28 kts | 335° |
| 2026-05-04 09:02 | 47.46602 | 8.54541 | 1404 ft | 29 kts | 335° |
| 2026-05-04 09:02 | 47.46779 | 8.54425 | 1398 ft | 28 kts | 340° |
| 2026-05-04 09:03 | 47.46949 | 8.54302 | 1403 ft | 25 kts | 322° |
| 2026-05-04 09:03 | 47.47022 | 8.54099 | 1405 ft | 20 kts | 266° |
| 2026-05-04 09:03 | 47.47001 | 8.53992 | 1400 ft | 8 kts | 207° |
| 2026-05-04 09:03 | 47.46989 | 8.53993 | 1399 ft | 1 kts | 172° |
| 2026-05-04 09:04 | 47.46986 | 8.53996 | 1408 ft | 0 kts | 158° |
| 2026-05-04 09:04 | 47.46983 | 8.53997 | 1399 ft | 0 kts | 157° |
| 2026-05-04 09:04 | 47.46979 | 8.54000 | 1398 ft | 1 kts | 157° |
| 2026-05-04 09:04 | 47.46897 | 8.54051 | 1397 ft | 41 kts | 156° |
| 2026-05-04 09:05 | 47.46416 | 8.54387 | 1400 ft | 108 kts | 155° |
| 2026-05-04 09:05 | 47.45572 | 8.54970 | 1405 ft | 158 kts | 155° |
| 2026-05-04 09:05 | 47.44489 | 8.55712 | 1674 ft | 176 kts | 155° |
| 2026-05-04 09:05 | 47.43411 | 8.56546 | 2386 ft | 170 kts | 143° |
| 2026-05-04 09:06 | 47.42689 | 8.57809 | 3187 ft | 157 kts | 113° |
| 2026-05-04 09:07 | 47.45643 | 8.71358 | 5232 ft | 269 kts | 76° |
| 2026-05-04 09:08 | 47.46102 | 8.74072 | 5851 ft | 275 kts | 75° |
| 2026-05-04 09:08 | 47.46531 | 8.76862 | 6534 ft | 280 kts | 83° |
| 2026-05-04 09:08 | 47.46645 | 8.79744 | 7245 ft | 283 kts | 87° |
| 2026-05-04 09:08 | 47.46632 | 8.82668 | 7951 ft | 287 kts | 97° |
| 2026-05-04 09:09 | 47.46245 | 8.85581 | 8630 ft | 291 kts | 103° |
| 2026-05-04 09:09 | 47.45809 | 8.88515 | 9285 ft | 295 kts | 102° |
| 2026-05-04 09:09 | 47.45372 | 8.91503 | 9956 ft | 297 kts | 103° |
| 2026-05-04 09:09 | 47.45085 | 8.93494 | 10355 ft | 304 kts | 103° |
| 2026-05-04 09:10 | 47.44632 | 8.96649 | 10508 ft | 324 kts | 103° |
| 2026-05-04 09:10 | 47.43992 | 9.01147 | 10690 ft | 351 kts | 103° |
| 2026-05-04 09:10 | 47.43484 | 9.04732 | 11033 ft | 361 kts | 103° |
| 2026-05-04 09:10 | 47.42962 | 9.08384 | 11559 ft | 366 kts | 104° |
| 2026-05-04 09:11 | 47.42604 | 9.10873 | 11964 ft | 368 kts | 104° |
| 2026-05-04 09:11 | 47.42066 | 9.14596 | 12544 ft | 372 kts | 104° |
| 2026-05-04 09:11 | 47.41621 | 9.18379 | 13147 ft | 377 kts | 97° |
| 2026-05-04 09:11 | 47.41638 | 9.22206 | 13714 ft | 382 kts | 85° |
| 2026-05-04 09:12 | 47.42140 | 9.26088 | 14267 ft | 386 kts | 78° |
| 2026-05-04 09:12 | 47.42747 | 9.29962 | 14822 ft | 388 kts | 78° |
| 2026-05-04 09:14 | 47.46908 | 9.57823 | 18216 ft | 404 kts | 82° |
| 2026-05-04 09:14 | 47.47134 | 9.61955 | 18617 ft | 405 kts | 92° |
| 2026-05-04 09:14 | 47.46954 | 9.66113 | 18994 ft | 406 kts | 96° |
| 2026-05-04 09:14 | 47.46721 | 9.70289 | 19376 ft | 408 kts | 96° |
| 2026-05-04 09:15 | 47.46489 | 9.74476 | 19742 ft | 410 kts | 96° |
| 2026-05-04 09:15 | 47.46256 | 9.78692 | 20107 ft | 412 kts | 96° |
| 2026-05-04 09:15 | 47.46021 | 9.82923 | 20449 ft | 415 kts | 96° |
| 2026-05-04 09:15 | 47.45785 | 9.87182 | 20789 ft | 417 kts | 96° |
| 2026-05-04 09:17 | 47.43555 | 10.21474 | 23531 ft | 433 kts | 102° |
| 2026-05-04 09:18 | 47.42967 | 10.25847 | 23846 ft | 435 kts | 102° |
| 2026-05-04 09:18 | 47.42385 | 10.30241 | 24161 ft | 437 kts | 102° |
| 2026-05-04 09:18 | 47.41802 | 10.34661 | 24473 ft | 440 kts | 102° |
| 2026-05-04 09:18 | 47.41211 | 10.39100 | 24766 ft | 442 kts | 102° |
| 2026-05-04 09:19 | 47.40609 | 10.43556 | 25059 ft | 444 kts | 102° |
| 2026-05-04 09:19 | 47.40001 | 10.48033 | 25347 ft | 446 kts | 102° |
| 2026-05-04 09:19 | 47.39385 | 10.52529 | 25615 ft | 448 kts | 102° |
| 2026-05-04 09:19 | 47.38762 | 10.57046 | 25868 ft | 450 kts | 103° |
| 2026-05-04 09:20 | 47.38133 | 10.61583 | 26142 ft | 452 kts | 102° |
| 2026-05-04 09:20 | 47.37501 | 10.66147 | 26406 ft | 455 kts | 103° |
| 2026-05-04 09:20 | 47.36866 | 10.70721 | 26679 ft | 457 kts | 103° |
| 2026-05-04 09:20 | 47.36224 | 10.75324 | 26951 ft | 458 kts | 103° |
| 2026-05-04 09:21 | 47.35580 | 10.79939 | 27208 ft | 460 kts | 103° |
| 2026-05-04 09:21 | 47.34929 | 10.84570 | 27451 ft | 462 kts | 103° |
| 2026-05-04 09:21 | 47.34271 | 10.89219 | 27691 ft | 464 kts | 103° |
| 2026-05-04 09:21 | 47.33611 | 10.93883 | 27931 ft | 466 kts | 103° |
| 2026-05-04 09:22 | 47.32945 | 10.98574 | 28150 ft | 468 kts | 103° |
| 2026-05-04 09:22 | 47.32274 | 11.03273 | 28388 ft | 470 kts | 103° |
| 2026-05-04 09:22 | 47.31601 | 11.07983 | 28605 ft | 472 kts | 103° |
| 2026-05-04 09:22 | 47.30923 | 11.12727 | 28812 ft | 473 kts | 103° |
| 2026-05-04 09:23 | 47.30246 | 11.17483 | 29014 ft | 475 kts | 103° |
| 2026-05-04 09:23 | 47.29569 | 11.22221 | 29080 ft | 468 kts | 103° |
| 2026-05-04 09:23 | 47.28238 | 11.31450 | 29080 ft | 457 kts | 103° |
| 2026-05-04 09:25 | 47.23464 | 11.68060 | 29087 ft | 456 kts | 99° |
| 2026-05-04 09:26 | 47.22536 | 11.77301 | 29092 ft | 456 kts | 99° |
| 2026-05-04 09:26 | 47.21530 | 11.86501 | 29094 ft | 455 kts | 100° |
| 2026-05-04 09:27 | 47.20527 | 11.95699 | 29101 ft | 456 kts | 99° |
| 2026-05-04 09:27 | 47.19648 | 12.04925 | 29118 ft | 456 kts | 98° |
| 2026-05-04 09:28 | 47.18786 | 12.14148 | 29135 ft | 455 kts | 98° |
| 2026-05-04 09:28 | 47.17886 | 12.23357 | 29142 ft | 455 kts | 99° |
| 2026-05-04 09:29 | 47.16965 | 12.32560 | 29144 ft | 455 kts | 99° |
| 2026-05-04 09:29 | 47.16052 | 12.41688 | 29144 ft | 454 kts | 99° |
| 2026-05-04 09:30 | 47.15125 | 12.50875 | 29143 ft | 454 kts | 99° |
| 2026-05-04 09:30 | 47.14187 | 12.60052 | 29150 ft | 455 kts | 99° |
| 2026-05-04 09:31 | 47.13241 | 12.69234 | 29147 ft | 454 kts | 99° |
| 2026-05-04 09:31 | 47.12294 | 12.78408 | 29146 ft | 454 kts | 99° |
| 2026-05-04 09:32 | 47.11337 | 12.87565 | 29145 ft | 454 kts | 99° |
| 2026-05-04 09:34 | 47.07443 | 13.24113 | 29136 ft | 452 kts | 99° |
| 2026-05-04 09:34 | 47.06450 | 13.33223 | 29134 ft | 452 kts | 99° |
| 2026-05-04 09:35 | 47.05456 | 13.42334 | 29126 ft | 452 kts | 99° |
| 2026-05-04 09:35 | 47.04457 | 13.51372 | 29121 ft | 452 kts | 99° |
| 2026-05-04 09:37 | 47.00382 | 13.87666 | 29123 ft | 451 kts | 99° |
| 2026-05-04 09:38 | 46.99344 | 13.96730 | 29122 ft | 451 kts | 99° |
| 2026-05-04 09:38 | 46.98299 | 14.05785 | 29126 ft | 451 kts | 99° |
| 2026-05-04 09:39 | 46.97247 | 14.14850 | 29130 ft | 451 kts | 99° |
| 2026-05-04 09:39 | 46.96187 | 14.23906 | 29134 ft | 451 kts | 99° |
| 2026-05-04 09:40 | 46.95127 | 14.32960 | 29135 ft | 451 kts | 99° |
| 2026-05-04 09:40 | 46.94056 | 14.42004 | 29135 ft | 451 kts | 99° |
| 2026-05-04 09:42 | 46.89693 | 14.78087 | 29126 ft | 451 kts | 99° |
| 2026-05-04 09:43 | 46.88592 | 14.87122 | 29126 ft | 451 kts | 99° |
| 2026-05-04 09:43 | 46.87474 | 14.96149 | 29126 ft | 451 kts | 99° |
| 2026-05-04 09:44 | 46.86348 | 15.05170 | 29120 ft | 451 kts | 99° |
| 2026-05-04 09:46 | 46.81783 | 15.41200 | 29113 ft | 450 kts | 99° |
| 2026-05-04 09:46 | 46.80631 | 15.50189 | 29112 ft | 451 kts | 99° |
| 2026-05-04 09:47 | 46.79468 | 15.59169 | 29111 ft | 451 kts | 99° |
| 2026-05-04 09:49 | 46.74751 | 15.95037 | 29099 ft | 451 kts | 99° |
| 2026-05-04 09:51 | 46.70521 | 16.26386 | 29109 ft | 449 kts | 99° |
| 2026-05-04 09:51 | 46.69304 | 16.35316 | 29108 ft | 449 kts | 99° |
| 2026-05-04 09:52 | 46.68085 | 16.44233 | 29112 ft | 449 kts | 98° |
| 2026-05-04 09:52 | 46.67020 | 16.53179 | 29115 ft | 448 kts | 96° |
| 2026-05-04 09:53 | 46.66052 | 16.62141 | 29116 ft | 448 kts | 96° |
| 2026-05-04 09:53 | 46.65058 | 16.71090 | 29124 ft | 448 kts | 97° |
| 2026-05-04 09:54 | 46.64014 | 16.80025 | 29129 ft | 448 kts | 97° |
| 2026-05-04 09:54 | 46.62954 | 16.88937 | 29133 ft | 447 kts | 97° |
| 2026-05-04 09:55 | 46.61899 | 16.97781 | 29135 ft | 446 kts | 97° |
| 2026-05-04 09:55 | 46.60840 | 17.06671 | 29137 ft | 446 kts | 97° |
| 2026-05-04 09:56 | 46.59780 | 17.15553 | 29137 ft | 445 kts | 97° |
| 2026-05-04 09:56 | 46.58711 | 17.24415 | 29138 ft | 445 kts | 97° |
| 2026-05-04 09:57 | 46.57632 | 17.33270 | 29137 ft | 444 kts | 97° |
| 2026-05-04 09:57 | 46.56540 | 17.42109 | 29138 ft | 444 kts | 97° |
| 2026-05-04 09:58 | 46.55452 | 17.50935 | 29138 ft | 444 kts | 97° |
| 2026-05-04 09:58 | 46.54365 | 17.59747 | 29139 ft | 443 kts | 97° |
| 2026-05-04 10:00 | 46.49949 | 17.94794 | 29139 ft | 441 kts | 97° |
| 2026-05-04 10:04 | 46.41977 | 18.55801 | 29167 ft | 439 kts | 98° |
| 2026-05-04 10:04 | 46.40812 | 18.64475 | 29167 ft | 439 kts | 98° |
| 2026-05-04 10:05 | 46.39648 | 18.73149 | 29169 ft | 438 kts | 98° |
| 2026-05-04 10:05 | 46.38664 | 18.80409 | 29171 ft | 438 kts | 98° |
| 2026-05-04 10:06 | 46.37487 | 18.89060 | 29174 ft | 437 kts | 98° |
| 2026-05-04 10:06 | 46.36303 | 18.97691 | 29178 ft | 437 kts | 98° |
| 2026-05-04 10:08 | 46.32146 | 19.27706 | 29181 ft | 434 kts | 98° |
| 2026-05-04 10:08 | 46.30940 | 19.36260 | 29178 ft | 433 kts | 98° |
| 2026-05-04 10:09 | 46.29738 | 19.44790 | 29189 ft | 433 kts | 98° |
| 2026-05-04 10:09 | 46.28526 | 19.53304 | 29187 ft | 432 kts | 98° |
| 2026-05-04 10:10 | 46.27302 | 19.61814 | 29193 ft | 432 kts | 98° |
| 2026-05-04 10:10 | 46.26081 | 19.70301 | 29195 ft | 431 kts | 98° |
| 2026-05-04 10:11 | 46.24860 | 19.78772 | 29192 ft | 430 kts | 98° |
| 2026-05-04 10:11 | 46.23629 | 19.87215 | 29182 ft | 430 kts | 98° |
| 2026-05-04 10:12 | 46.22394 | 19.95665 | 29187 ft | 430 kts | 98° |
| 2026-05-04 10:12 | 46.21164 | 20.04048 | 29187 ft | 430 kts | 98° |
| 2026-05-04 10:13 | 46.19918 | 20.12480 | 29192 ft | 429 kts | 98° |
| 2026-05-04 10:13 | 46.18666 | 20.20908 | 29192 ft | 429 kts | 98° |
| 2026-05-04 10:14 | 46.17407 | 20.29321 | 29182 ft | 429 kts | 98° |
| 2026-05-04 10:16 | 46.09911 | 20.57582 | 29189 ft | 436 kts | 112° |
| 2026-05-04 10:16 | 46.08586 | 20.61504 | 29195 ft | 436 kts | 112° |
| 2026-05-04 10:16 | 46.05928 | 20.69351 | 29192 ft | 436 kts | 112° |
| 2026-05-04 10:17 | 46.03267 | 20.77191 | 29189 ft | 436 kts | 111° |
| 2026-05-04 10:19 | 45.92624 | 21.08363 | 29183 ft | 434 kts | 111° |
| 2026-05-04 10:19 | 45.89949 | 21.16134 | 29182 ft | 434 kts | 111° |
| 2026-05-04 10:20 | 45.87269 | 21.23899 | 29194 ft | 434 kts | 111° |
| 2026-05-04 10:20 | 45.84581 | 21.31644 | 29194 ft | 434 kts | 111° |
| 2026-05-04 10:21 | 45.81891 | 21.39389 | 29194 ft | 433 kts | 111° |
| 2026-05-04 10:21 | 45.79201 | 21.47116 | 29196 ft | 433 kts | 111° |
| 2026-05-04 10:22 | 45.75153 | 21.58683 | 29194 ft | 432 kts | 111° |
| 2026-05-04 10:23 | 45.72455 | 21.66367 | 29188 ft | 432 kts | 111° |
| 2026-05-04 10:25 | 45.61662 | 21.96914 | 29183 ft | 431 kts | 111° |
| 2026-05-04 10:25 | 45.58947 | 22.04547 | 29184 ft | 431 kts | 111° |
| 2026-05-04 10:26 | 45.56227 | 22.12163 | 29183 ft | 430 kts | 111° |
| 2026-05-04 10:26 | 45.53511 | 22.19765 | 29182 ft | 430 kts | 111° |
| 2026-05-04 10:27 | 45.50786 | 22.27355 | 29182 ft | 430 kts | 111° |
| 2026-05-04 10:27 | 45.48056 | 22.34941 | 29183 ft | 430 kts | 111° |
| 2026-05-04 10:28 | 45.45319 | 22.42511 | 29185 ft | 430 kts | 111° |
| 2026-05-04 10:28 | 45.42589 | 22.50064 | 29176 ft | 428 kts | 111° |
| 2026-05-04 10:29 | 45.39852 | 22.57593 | 29178 ft | 428 kts | 111° |
| 2026-05-04 10:29 | 45.37115 | 22.65118 | 29174 ft | 428 kts | 111° |
| 2026-05-04 10:30 | 45.34370 | 22.72646 | 29173 ft | 429 kts | 111° |
| 2026-05-04 10:30 | 45.31624 | 22.80160 | 29162 ft | 427 kts | 111° |
| 2026-05-04 10:31 | 45.28872 | 22.87648 | 29166 ft | 428 kts | 111° |
| 2026-05-04 10:32 | 45.19225 | 23.13740 | 29155 ft | 427 kts | 111° |
| 2026-05-04 10:33 | 45.16463 | 23.21195 | 29161 ft | 427 kts | 111° |
| 2026-05-04 10:33 | 45.13689 | 23.28634 | 29164 ft | 427 kts | 112° |
| 2026-05-04 10:34 | 45.10937 | 23.36072 | 29165 ft | 424 kts | 108° |
| 2026-05-04 10:34 | 45.09186 | 23.43907 | 29169 ft | 416 kts | 99° |
| 2026-05-04 10:35 | 45.07704 | 23.51823 | 29172 ft | 416 kts | 99° |
| 2026-05-04 10:35 | 45.06211 | 23.59757 | 29159 ft | 419 kts | 99° |
| 2026-05-04 10:36 | 45.04710 | 23.67674 | 29155 ft | 416 kts | 100° |
| 2026-05-04 10:36 | 45.03204 | 23.75520 | 29155 ft | 416 kts | 100° |
| 2026-05-04 10:37 | 45.01693 | 23.83400 | 29155 ft | 416 kts | 100° |
| 2026-05-04 10:37 | 45.00181 | 23.91289 | 29038 ft | 416 kts | 100° |
| 2026-05-04 10:39 | 44.95703 | 24.14438 | 26823 ft | 394 kts | 101° |
| 2026-05-04 10:39 | 44.94982 | 24.18143 | 26308 ft | 389 kts | 101° |
| 2026-05-04 10:39 | 44.94267 | 24.21796 | 25810 ft | 384 kts | 101° |
| 2026-05-04 10:40 | 44.93559 | 24.25401 | 25313 ft | 378 kts | 101° |
| 2026-05-04 10:40 | 44.92862 | 24.28946 | 24840 ft | 371 kts | 101° |
| 2026-05-04 10:40 | 44.92177 | 24.32424 | 24371 ft | 365 kts | 101° |
| 2026-05-04 10:40 | 44.91504 | 24.35838 | 23929 ft | 358 kts | 101° |
| 2026-05-04 10:41 | 44.90844 | 24.39191 | 23493 ft | 352 kts | 101° |
| 2026-05-04 10:41 | 44.90191 | 24.42508 | 23080 ft | 350 kts | 101° |
| 2026-05-04 10:41 | 44.89543 | 24.45800 | 22681 ft | 348 kts | 101° |
| 2026-05-04 10:41 | 44.88898 | 24.49071 | 22265 ft | 345 kts | 101° |
| 2026-05-04 10:42 | 44.88256 | 24.52321 | 21879 ft | 343 kts | 101° |
| 2026-05-04 10:42 | 44.87617 | 24.55543 | 21492 ft | 340 kts | 101° |
| 2026-05-04 10:42 | 44.86991 | 24.58698 | 21112 ft | 338 kts | 102° |
| 2026-05-04 10:42 | 44.86316 | 24.61889 | 20376 ft | 343 kts | 104° |
| 2026-05-04 10:43 | 44.85548 | 24.65055 | 19467 ft | 338 kts | 106° |
| 2026-05-04 10:44 | 44.80094 | 24.85782 | 16408 ft | 315 kts | 105° |
| 2026-05-04 10:45 | 44.79351 | 24.88658 | 16016 ft | 313 kts | 105° |
| 2026-05-04 10:45 | 44.78607 | 24.91540 | 15624 ft | 312 kts | 105° |
| 2026-05-04 10:45 | 44.77864 | 24.94407 | 15232 ft | 311 kts | 106° |
| 2026-05-04 10:45 | 44.77122 | 24.97261 | 14840 ft | 309 kts | 105° |
| 2026-05-04 10:46 | 44.76387 | 25.00097 | 14451 ft | 308 kts | 105° |
| 2026-05-04 10:46 | 44.75656 | 25.02916 | 14059 ft | 306 kts | 105° |
| 2026-05-04 10:46 | 44.74925 | 25.05726 | 13678 ft | 305 kts | 105° |
| 2026-05-04 10:46 | 44.74200 | 25.08517 | 13272 ft | 303 kts | 105° |
| 2026-05-04 10:47 | 44.73476 | 25.11297 | 12883 ft | 302 kts | 105° |
| 2026-05-04 10:47 | 44.72752 | 25.14067 | 12485 ft | 301 kts | 105° |
| 2026-05-04 10:47 | 44.72029 | 25.16822 | 12080 ft | 300 kts | 105° |
| 2026-05-04 10:47 | 44.71308 | 25.19564 | 11681 ft | 299 kts | 105° |
| 2026-05-04 10:49 | 44.66430 | 25.38099 | 9814 ft | 282 kts | 106° |
| 2026-05-04 10:49 | 44.65754 | 25.40682 | 9686 ft | 282 kts | 106° |
| 2026-05-04 10:50 | 44.65073 | 25.43270 | 9258 ft | 283 kts | 106° |
| 2026-05-04 10:51 | 44.60274 | 25.61288 | 5874 ft | 274 kts | 107° |
| 2026-05-04 10:52 | 44.59606 | 25.63798 | 5383 ft | 275 kts | 107° |
| 2026-05-04 10:52 | 44.58995 | 25.66085 | 4945 ft | 275 kts | 107° |
| 2026-05-04 10:52 | 44.58324 | 25.68596 | 4463 ft | 275 kts | 107° |
| 2026-05-04 10:54 | 44.54625 | 25.83871 | 2854 ft | 223 kts | 82° |
| 2026-05-04 10:54 | 44.54778 | 25.86033 | 2574 ft | 224 kts | 81° |
| 2026-05-04 10:56 | 44.55820 | 25.99269 | 1421 ft | 167 kts | 83° |
| 2026-05-04 10:56 | 44.55944 | 26.00881 | 1228 ft | 165 kts | 83° |
| 2026-05-04 10:56 | 44.56065 | 26.02449 | 1011 ft | 158 kts | 83° |
| 2026-05-04 10:57 | 44.56181 | 26.03955 | 820 ft | 154 kts | 83° |
| 2026-05-04 10:57 | 44.56290 | 26.05445 | 626 ft | 152 kts | 83° |
| 2026-05-04 10:57 | 44.56407 | 26.06914 | 455 ft | 152 kts | 83° |
| 2026-05-04 10:57 | 44.56520 | 26.08384 | 329 ft | 148 kts | 83° |
| 2026-05-04 10:58 | 44.56620 | 26.09655 | 320 ft | 104 kts | 84° |
| 2026-05-04 10:58 | 44.56682 | 26.10429 | 321 ft | 59 kts | 83° |
| 2026-05-04 10:58 | 44.56703 | 26.10721 | 321 ft | 30 kts | 82° |
| 2026-05-04 10:58 | 44.56762 | 26.10769 | 321 ft | 12 kts | 354° |
| 2026-05-04 10:59 | 44.56897 | 26.10747 | 321 ft | 22 kts | 353° |
| 2026-05-04 10:59 | 44.57024 | 26.10657 | 319 ft | 21 kts | 302° |
| 2026-05-04 10:59 | 44.57066 | 26.10470 | 321 ft | 20 kts | 270° |
| 2026-05-04 10:59 | 44.57052 | 26.10283 | 321 ft | 19 kts | 263° |
| 2026-05-04 11:00 | 44.57038 | 26.10098 | 321 ft | 19 kts | 264° |
| 2026-05-04 11:01 | 44.56941 | 26.08821 | 321 ft | 18 kts | 264° |
| 2026-05-04 11:02 | 44.56927 | 26.08645 | 321 ft | 18 kts | 262° |
| 2026-05-04 11:02 | 44.56901 | 26.08475 | 320 ft | 17 kts | 269° |
| 2026-05-04 11:05 | 44.57014 | 26.07963 | 320 ft | 0 kts | 354° |